createdAt,value
2018-01-24T15:50:02.126Z,74.17
2018-01-24T15:51:01.693Z,69.03
2018-01-24T15:52:01.674Z,69.39
2018-01-24T15:53:01.667Z,68.88
2018-01-24T15:54:01.669Z,75.08
2018-01-24T15:55:01.673Z,69.98
2018-01-24T15:56:01.722Z,68.49
2018-01-24T15:57:01.677Z,70.41
2018-01-24T15:58:01.684Z,68.59
2018-01-24T15:59:01.689Z,64.63
2018-01-24T16:00:01.677Z,64.27
2018-01-24T16:01:01.685Z,63.66
2018-01-24T16:02:02.123Z,62.94
2018-01-24T16:03:01.681Z,62.57
2018-01-24T16:04:01.692Z,61.63
2018-01-24T16:05:01.677Z,61.94
2018-01-24T16:06:01.677Z,61.28
2018-01-24T16:07:01.681Z,61.1
2018-01-24T16:08:01.716Z,60.86
2018-01-24T16:09:01.680Z,60.09
2018-01-24T16:10:01.688Z,60.28
2018-01-24T16:11:01.688Z,59.66
2018-01-24T16:12:01.689Z,59.85
2018-01-24T16:13:01.688Z,59.42
2018-01-24T16:14:01.736Z,59.24
2018-01-24T16:15:01.693Z,59.2
2018-01-24T16:16:01.694Z,59.04
2018-01-24T16:17:01.688Z,59.23
2018-01-24T16:18:01.696Z,58.53
2018-01-24T16:19:01.695Z,59.37
2018-01-24T16:20:01.720Z,64.1
2018-01-24T16:21:01.688Z,61.73
2018-01-24T16:22:01.754Z,61.27
2018-01-24T16:23:01.691Z,60.29
2018-01-24T16:24:01.690Z,60.14
2018-01-24T16:25:01.699Z,60.19
2018-01-24T16:26:02.127Z,60.06
2018-01-24T16:27:01.699Z,60.05
2018-01-24T16:28:01.699Z,60.19
2018-01-24T16:29:01.698Z,60.1
2018-01-24T16:30:01.702Z,60.06
2018-01-24T16:31:01.709Z,60.78
2018-01-24T16:32:01.829Z,60.24
2018-01-24T16:33:01.700Z,61.35
2018-01-24T16:34:01.701Z,60.12
2018-01-24T16:35:01.698Z,60.33
2018-01-24T16:36:01.706Z,59.77
2018-01-24T16:37:01.711Z,60.23
2018-01-24T16:38:01.936Z,60.08
2018-01-24T16:39:01.707Z,60.33
2018-01-24T16:40:01.708Z,59.99
2018-01-24T16:41:01.710Z,59.91
2018-01-24T16:42:01.710Z,59.08
2018-01-24T16:43:01.720Z,59.7
2018-01-24T16:44:01.758Z,60.84
2018-01-24T16:45:01.717Z,59.9
2018-01-24T16:46:01.712Z,59.88
2018-01-24T16:47:01.714Z,59.61
2018-01-24T16:48:01.714Z,59.69
2018-01-24T16:49:01.718Z,59.94
2018-01-24T16:50:01.950Z,59.53
2018-01-24T16:51:01.722Z,59.28
2018-01-24T16:52:01.752Z,59.86
2018-01-24T16:53:01.716Z,59.6
2018-01-24T16:54:01.729Z,59.33
2018-01-24T16:55:01.784Z,58.96
2018-01-24T16:56:02.160Z,59
2018-01-24T16:57:01.728Z,58.78
2018-01-24T16:58:01.720Z,59.12
2018-01-24T16:59:01.725Z,59.07
2018-01-24T17:00:01.723Z,59.22
2018-01-24T17:01:01.725Z,59.35
2018-01-24T17:02:01.761Z,59.4
2018-01-24T17:03:01.748Z,59.12
2018-01-24T17:04:01.724Z,60.4
2018-01-24T17:05:01.734Z,59.56
2018-01-24T17:06:01.728Z,60.11
2018-01-24T17:07:01.728Z,59.73
2018-01-24T17:08:01.775Z,59.78
2018-01-24T17:09:01.732Z,59.59
2018-01-24T17:10:01.737Z,61.18
2018-01-24T17:11:01.734Z,60.03
2018-01-24T17:12:01.731Z,59.93
2018-01-24T17:13:01.744Z,59.91
2018-01-24T17:14:01.783Z,59.6
2018-01-24T17:15:01.740Z,59.56
2018-01-24T17:16:01.738Z,59.6
2018-01-24T17:17:01.742Z,59.71
2018-01-24T17:18:01.738Z,60.02
2018-01-24T17:19:01.745Z,59.4
2018-01-24T17:20:02.173Z,59.87
2018-01-24T17:21:01.744Z,59.69
2018-01-24T17:22:01.778Z,60.36
2018-01-24T17:23:01.746Z,60.35
2018-01-24T17:24:01.759Z,59.64
2018-01-24T17:25:01.744Z,60.05
2018-01-24T17:26:01.786Z,60.03
2018-01-24T17:27:01.759Z,59.76
2018-01-24T17:28:01.764Z,60.11
2018-01-24T17:29:01.760Z,59.86
2018-01-24T17:30:01.751Z,59.36
2018-01-24T17:31:01.755Z,59.74
2018-01-24T17:32:01.786Z,59.26
2018-01-24T17:33:01.859Z,59.82
2018-01-24T17:34:01.752Z,59.6
2018-01-24T17:35:02.221Z,59.65
2018-01-24T17:36:01.755Z,59.41
2018-01-24T17:37:01.761Z,59.64
2018-01-24T17:38:01.872Z,60.45
2018-01-24T17:39:01.760Z,60.37
2018-01-24T17:40:01.756Z,59.49
2018-01-24T17:41:01.759Z,59.68
2018-01-24T17:42:01.759Z,60.72
2018-01-24T17:43:01.761Z,60.05
2018-01-24T17:44:02.191Z,59.98
2018-01-24T17:45:01.769Z,59.36
2018-01-24T17:46:01.763Z,59.66
2018-01-24T17:47:01.767Z,59.55
2018-01-24T17:48:01.765Z,59.6
2018-01-24T17:49:01.762Z,59.34
2018-01-24T17:50:02.188Z,59.41
2018-01-24T17:51:01.775Z,59.18
2018-01-24T17:52:01.763Z,58.86
2018-01-24T17:53:01.769Z,59.19
2018-01-24T17:54:01.885Z,59.12
2018-01-24T17:55:01.774Z,58.84
2018-01-24T17:56:01.796Z,58.93
2018-01-24T17:57:01.772Z,58.51
2018-01-24T17:58:01.776Z,58.86
2018-01-24T17:59:01.771Z,58.41
2018-01-24T18:00:01.773Z,58.43
2018-01-24T18:01:01.776Z,58.54
2018-01-24T18:02:01.892Z,58.73
2018-01-24T18:03:01.776Z,58.54
2018-01-24T18:04:01.781Z,58.09
2018-01-24T18:05:01.776Z,58.53
2018-01-24T18:06:01.776Z,58.05
2018-01-24T18:07:01.782Z,58.27
2018-01-24T18:08:01.781Z,58.29
2018-01-24T18:09:01.801Z,57.84
2018-01-24T18:10:01.794Z,57.97
2018-01-24T18:11:01.782Z,57.62
2018-01-24T18:12:01.787Z,57.76
2018-01-24T18:13:02.169Z,57.85
2018-01-24T18:14:01.785Z,57.73
2018-01-24T18:15:01.783Z,57.08
2018-01-24T18:16:01.792Z,57.97
2018-01-24T18:17:01.835Z,57.93
2018-01-24T18:18:01.790Z,58.03
2018-01-24T18:19:02.277Z,58.14
2018-01-24T18:20:01.787Z,57.68
2018-01-24T18:21:01.788Z,57.96
2018-01-24T18:22:01.788Z,58.4
2018-01-24T18:23:01.791Z,58.68
2018-01-24T18:24:01.797Z,58.23
2018-01-24T18:25:01.830Z,58.06
2018-01-24T18:26:01.800Z,57.91
2018-01-24T18:27:01.796Z,58.36
2018-01-24T18:28:01.798Z,58.04
2018-01-24T18:29:01.796Z,58.33
2018-01-24T18:30:01.803Z,58.13
2018-01-24T18:31:01.835Z,58.43
2018-01-24T18:32:01.799Z,58.12
2018-01-24T18:33:01.809Z,58.08
2018-01-24T18:34:01.806Z,58.57
2018-01-24T18:35:01.802Z,58.35
2018-01-24T18:36:01.804Z,58.93
2018-01-24T18:37:02.232Z,58.45
2018-01-24T18:38:01.808Z,58.66
2018-01-24T18:39:01.808Z,58.99
2018-01-24T18:40:01.805Z,59.28
2018-01-24T18:41:01.831Z,58.77
2018-01-24T18:42:02.155Z,58.35
2018-01-24T18:43:01.970Z,58.56
2018-01-24T18:44:01.812Z,58.44
2018-01-24T18:45:01.820Z,58.78
2018-01-24T18:46:01.820Z,59.23
2018-01-24T18:47:01.814Z,58.89
2018-01-24T18:48:01.811Z,59
2018-01-24T18:49:01.862Z,59.08
2018-01-24T18:50:01.812Z,58.95
2018-01-24T18:51:01.815Z,59.05
2018-01-24T18:52:01.815Z,58.71
2018-01-24T18:53:01.819Z,59.71
2018-01-24T18:54:01.825Z,59.03
2018-01-24T18:55:01.936Z,58.79
2018-01-24T18:56:01.825Z,59.26
2018-01-24T18:57:01.821Z,58.6
2018-01-24T18:58:02.081Z,58.7
2018-01-24T18:59:01.861Z,58.51
2018-01-24T19:00:01.865Z,58.53
2018-01-24T19:01:02.307Z,58.63
2018-01-24T19:02:01.820Z,58.92
2018-01-24T19:03:01.820Z,58.5
2018-01-24T19:04:01.829Z,58.47
2018-01-24T19:05:01.822Z,58.41
2018-01-24T19:06:01.830Z,58.65
2018-01-24T19:07:01.988Z,58.43
2018-01-24T19:08:01.831Z,58.83
2018-01-24T19:09:01.832Z,58.67
2018-01-24T19:10:01.830Z,59.14
2018-01-24T19:11:01.828Z,60.17
2018-01-24T19:12:01.835Z,59.04
2018-01-24T19:13:01.948Z,59.06
2018-01-24T19:14:01.839Z,59.1
2018-01-24T19:15:01.861Z,59.13
2018-01-24T19:16:01.832Z,59.15
2018-01-24T19:17:01.834Z,59.46
2018-01-24T19:18:01.841Z,59.21
2018-01-24T19:19:01.874Z,58.84
2018-01-24T19:20:02.323Z,58.92
2018-01-24T19:21:01.854Z,59.27
2018-01-24T19:22:01.835Z,59.01
2018-01-24T19:23:01.844Z,58.7
2018-01-24T19:24:01.840Z,58.88
2018-01-24T19:25:01.874Z,58.51
2018-01-24T19:26:01.842Z,58.07
2018-01-24T19:27:01.842Z,58.35
2018-01-24T19:28:01.843Z,58.35
2018-01-24T19:29:01.844Z,58.46
2018-01-24T19:30:01.849Z,58.69
2018-01-24T19:31:01.889Z,58.7
2018-01-24T19:32:01.845Z,58.7
2018-01-24T19:33:01.849Z,58.29
2018-01-24T19:34:01.871Z,58.88
2018-01-24T19:35:01.856Z,58.87
2018-01-24T19:36:01.849Z,58.96
2018-01-24T19:37:02.246Z,58.53
2018-01-24T19:38:01.853Z,58.95
2018-01-24T19:39:01.862Z,58.64
2018-01-24T19:40:01.853Z,58.69
2018-01-24T19:41:01.853Z,59.08
2018-01-24T19:42:01.858Z,58.96
2018-01-24T19:43:02.048Z,59.04
2018-01-24T19:44:01.913Z,58.88
2018-01-24T19:45:01.863Z,59.03
2018-01-24T19:46:01.861Z,59.13
2018-01-24T19:47:01.861Z,59.09
2018-01-24T19:48:01.865Z,58.87
2018-01-24T19:49:01.901Z,58.85
2018-01-24T19:50:01.862Z,59
2018-01-24T19:51:01.948Z,58.6
2018-01-24T19:52:01.867Z,58.67
2018-01-24T19:53:01.865Z,59.07
2018-01-24T19:54:01.864Z,58.8
2018-01-24T19:55:01.913Z,58.57
2018-01-24T19:56:01.876Z,58.73
2018-01-24T19:57:01.867Z,59.28
2018-01-24T19:58:01.865Z,59.05
2018-01-24T19:59:01.873Z,58.82
2018-01-24T20:00:01.873Z,59.32
2018-01-24T20:01:02.276Z,59.67
